Historyczne dane pomiarowe

Dodano dane terminowe – wersja testowa.

Dane z okresu 1951-2019

Wersja bazy: 1.34 [2019-03-16, lista zmian], aktualizacja planowana na 2019-04-15

Dane meteo z obszaru Polski uzyskane na podstawie danych udostępnionych przez Instytut Meteorologii i Gospodarki Wodnej – Państwowy Instytut Badawczy.

 

Wybierz Datę:    

       

TemperaturaWilgotnośćZachmurzenieWiatrCiśnienieWidzialnośćZjawiska
 Data    tng td wb rh cc ccl cl cm ch dir g1 g2 mslp ppp      
1994-08-01 00:00:00 21.4--- 11.3 15.452wxwx1wx--1011.7 997.2 0.0---wx
1994-08-01 01:00:00 20.2--- 10.1 14.452wxwx0wx--1011.8 997.3----wx
1994-08-01 02:00:00 20.1--- 11.7 15.158wxwx1wx--1012.0 997.4----wx
1994-08-01 03:00:00 19.6--- 12.8 15.565wxwxwx0wx--1012.1 997.5----wx
1994-08-01 04:00:00 18.5--- 12.5 14.968wxwxwx0wx--1012.2 997.6----wx
1994-08-01 05:00:00 19.3--- 14.1 16.172wxwxwx1wx--1012.4 997.8----wx
1994-08-01 06:00:00 23.5--- 14.8 18.058wxwxwx1wx--1012.3 997.9 0.0---wx
1994-08-01 07:00:00 27.4--- 14.0 18.944wxwx2wx--1012.1 997.9----wx
1994-08-01 08:00:00 32.0--- 13.3 20.132wxwx2wx--1011.7 997.7----wx
1994-08-01 09:00:00 33.5--- 13.1 20.529wxwx4wx--1011.4 997.5----wx
1994-08-01 10:00:00 35.0--- 12.5 20.726wxwx4wx--1011.3 997.5----wx
1994-08-01 11:00:00 35.8--- 11.4 20.523wxwxwx3wx--1011.1 997.3----wx
1994-08-01 12:00:00 36.8--- 11.4 20.822wxwxwx5wx--1010.4 996.6 0.0---wx
1994-08-01 13:00:00 36.5--- 10.9 20.521wxwxwx3wx--1010.1 996.3----wx
1994-08-01 14:00:00 37.3--- 11.2 20.921wxwxwx5wx--1009.4 995.7----wx
1994-08-01 15:00:00 36.6--- 11.3 20.722wxwxwx2wx--1009.2 995.5----wx
1994-08-01 16:00:00 36.3--- 7.8 19.318wxwxwx3wx--1008.8 995.0----wx
1994-08-01 17:00:00 35.7--- 8.4 19.319wxwxwxwx3wx--1008.8 995.0----wx
1994-08-01 18:00:00 33.3--- 11.4 19.726wxwxwxwxwx2wx--1009.2 995.3 0.0---wx
1994-08-01 19:00:00 31.2--- 13.4 19.934wxwxwxwxwx4wx--1009.9 995.9----wx
1994-08-01 20:00:00 29.0--- 12.9 18.937wxwxwx4wx--1010.9 996.8----wx
1994-08-01 21:00:00 24.5--- 13.6 17.751wxwxwx3wx--1011.3 997.0----wx
1994-08-01 22:00:00 25.6--- 13.6 18.147wxwx4wx--1011.5 997.2----wx
1994-08-01 23:00:00 23.8--- 12.7 17.050wxwxwx3wx--1011.9 997.5----wx

 

Źródłem pochodzenia danych jest Instytut Meteorologii i Gospodarki Wodnej – Państwowy Instytut Badawczy. Dane Instytutu Meteorologii i Gospodarki Wodnej – Państwowego Instytutu Badawczego zostały przetworzone.

Dane źródłowe można odnaleźć na stronie https://dane.imgw.pl